createdAt,value
2023-05-18T00:00:19.580Z,101022.03
2023-05-18T00:02:50.489Z,101026.31
2023-05-18T00:05:20.457Z,101029.59
2023-05-18T00:07:47.918Z,101021.13
2023-05-18T00:10:15.568Z,101022.16
2023-05-18T00:12:45.905Z,101023.50
2023-05-18T00:15:13.341Z,101023.44
2023-05-18T00:17:40.810Z,101021.72
2023-05-18T00:20:09.802Z,101023.56
2023-05-18T00:22:39.183Z,101023.13
2023-05-18T00:25:07.011Z,101027.31
2023-05-18T00:27:37.138Z,101026.34
2023-05-18T00:30:06.344Z,101031.56
2023-05-18T00:32:33.740Z,101028.16
2023-05-18T00:35:16.705Z,101027.88
2023-05-18T00:37:47.075Z,101021.06
2023-05-18T00:40:14.515Z,101024.84
2023-05-18T00:42:42.032Z,101023.50
2023-05-18T00:45:10.494Z,101024.28
2023-05-18T00:47:37.965Z,101027.59
2023-05-18T00:50:06.018Z,101027.28
2023-05-18T00:52:34.960Z,101021.94
2023-05-18T00:55:02.470Z,101022.22
2023-05-18T00:57:29.966Z,101020.00
2023-05-18T01:00:00.569Z,101012.50
2023-05-18T01:02:30.624Z,101021.94
2023-05-18T01:04:58.199Z,101020.63
2023-05-18T01:07:26.634Z,101027.75
2023-05-18T01:09:54.561Z,101026.16
2023-05-18T01:12:29.576Z,101029.25
2023-05-18T01:15:08.120Z,101022.97
2023-05-18T01:17:50.458Z,101035.00
2023-05-18T01:20:27.731Z,101033.50
2023-05-18T01:23:33.933Z,101028.13
2023-05-18T01:26:17.713Z,101034.75
2023-05-18T01:28:46.965Z,101033.84
2023-05-18T01:31:16.462Z,101029.16
2023-05-18T01:33:45.174Z,101030.44
2023-05-18T01:36:12.783Z,101034.66
2023-05-18T01:38:43.849Z,101024.38
2023-05-18T01:41:28.344Z,101033.16
2023-05-18T01:44:04.367Z,101028.59
2023-05-18T01:46:43.620Z,101016.81
2023-05-18T01:49:23.922Z,101015.00
2023-05-18T01:51:53.443Z,101019.47
2023-05-18T01:54:24.353Z,101020.47
2023-05-18T01:56:54.404Z,101014.84
2023-05-18T01:59:24.095Z,101023.44
2023-05-18T02:01:51.974Z,101023.56
2023-05-18T02:04:28.288Z,101026.06
2023-05-18T02:06:56.299Z,101025.47
2023-05-18T02:09:24.057Z,101024.22
2023-05-18T02:11:51.853Z,101020.91
2023-05-18T02:14:19.303Z,101013.97
2023-05-18T02:16:47.434Z,101014.00
2023-05-18T02:19:15.097Z,101024.38
2023-05-18T02:21:44.970Z,101018.25
2023-05-18T02:24:12.864Z,101013.56
2023-05-18T02:26:41.741Z,101021.88
2023-05-18T02:29:14.372Z,101020.06
2023-05-18T02:31:42.050Z,101018.78
2023-05-18T02:34:10.429Z,101013.91
2023-05-18T02:36:42.711Z,101019.50
2023-05-18T02:39:10.556Z,101017.22
2023-05-18T02:41:38.507Z,101013.53
2023-05-18T02:44:06.366Z,101011.94
2023-05-18T02:46:33.805Z,101008.28
2023-05-18T02:49:01.336Z,101016.03
2023-05-18T02:51:30.390Z,101013.19
2023-05-18T02:53:58.087Z,101011.94
2023-05-18T02:56:26.356Z,101011.84
2023-05-18T02:59:01.390Z,101018.66
2023-05-18T03:01:34.938Z,101007.81
2023-05-18T03:04:03.020Z,101013.78
2023-05-18T03:06:31.629Z,101010.00
2023-05-18T03:08:59.324Z,101012.06
2023-05-18T03:11:35.607Z,101008.84
2023-05-18T03:14:03.101Z,101014.56
2023-05-18T03:16:30.485Z,101019.72
2023-05-18T03:18:59.134Z,101017.53
2023-05-18T03:21:36.344Z,101017.91
2023-05-18T03:24:04.183Z,101019.03
2023-05-18T03:26:33.221Z,101010.94
2023-05-18T03:29:02.138Z,101019.06
2023-05-18T03:31:29.751Z,101018.91
2023-05-18T03:33:59.540Z,101013.66
2023-05-18T03:36:28.306Z,101015.13
2023-05-18T03:38:55.958Z,101021.41
2023-05-18T03:41:23.786Z,101017.75
2023-05-18T03:43:53.042Z,101027.00
2023-05-18T03:46:20.468Z,101019.63
2023-05-18T03:48:48.076Z,101027.59
2023-05-18T03:51:23.752Z,101027.00
2023-05-18T03:53:51.124Z,101024.63
2023-05-18T03:56:18.454Z,101030.09
2023-05-18T03:58:45.935Z,101030.56
2023-05-18T04:01:13.400Z,101039.13
2023-05-18T04:03:42.701Z,101038.69
2023-05-18T04:06:11.748Z,101040.50
2023-05-18T04:08:40.492Z,101032.50
2023-05-18T04:11:08.005Z,101037.31
2023-05-18T04:13:38.290Z,101035.91
2023-05-18T04:16:06.195Z,101040.00
2023-05-18T04:18:33.762Z,101041.03
2023-05-18T04:21:03.163Z,101044.34
2023-05-18T04:23:31.592Z,101041.59
2023-05-18T04:26:00.152Z,101044.81
2023-05-18T04:28:28.733Z,101051.41
2023-05-18T04:30:56.224Z,101057.25
2023-05-18T04:33:24.123Z,101055.75
2023-05-18T04:35:55.195Z,101060.78
2023-05-18T04:38:23.545Z,101057.59
2023-05-18T04:40:51.886Z,101067.97
2023-05-18T04:43:21.069Z,101066.47
2023-05-18T04:45:51.357Z,101071.06
2023-05-18T04:48:19.274Z,101073.81
2023-05-18T04:50:47.504Z,101078.25
2023-05-18T04:53:18.182Z,101070.84
2023-05-18T04:55:46.527Z,101076.31
2023-05-18T04:58:13.872Z,101075.06
2023-05-18T05:00:41.318Z,101075.19
2023-05-18T05:03:08.995Z,101079.03
2023-05-18T05:05:36.644Z,101078.41
2023-05-18T05:08:06.166Z,101078.25
2023-05-18T05:10:33.638Z,101088.66
2023-05-18T05:13:01.080Z,101097.22
2023-05-18T05:15:28.835Z,101102.72
2023-05-18T05:18:00.084Z,101103.88
2023-05-18T05:20:27.622Z,101105.56
2023-05-18T05:22:55.185Z,101100.97
2023-05-18T05:25:25.640Z,101102.59
2023-05-18T05:27:53.054Z,101106.50
2023-05-18T05:30:22.064Z,101110.97
2023-05-18T05:32:49.500Z,101113.16
2023-05-18T05:35:17.040Z,101115.66
2023-05-18T05:37:45.749Z,101112.44
2023-05-18T05:40:16.238Z,101116.47
2023-05-18T05:42:46.222Z,101116.09
2023-05-18T05:45:14.149Z,101114.06
2023-05-18T05:47:55.223Z,101122.59
2023-05-18T05:50:24.241Z,101119.25
2023-05-18T05:52:54.330Z,101123.63
2023-05-18T05:55:26.273Z,101119.88
2023-05-18T05:57:53.850Z,101125.38
2023-05-18T06:00:23.747Z,101120.03
2023-05-18T06:02:54.500Z,101129.63
2023-05-18T06:05:32.804Z,101132.44
2023-05-18T06:08:00.539Z,101127.06
2023-05-18T06:10:28.053Z,101132.09
2023-05-18T06:12:56.083Z,101132.09
2023-05-18T06:15:27.533Z,101140.16
2023-05-18T06:17:55.019Z,101139.44
2023-05-18T06:20:23.170Z,101125.91
2023-05-18T06:22:50.848Z,101129.78
2023-05-18T06:25:24.412Z,101135.63
2023-05-18T06:28:06.436Z,101138.66
2023-05-18T06:30:47.096Z,101139.44
2023-05-18T06:33:21.472Z,101140.59
2023-05-18T06:35:49.266Z,101132.88
2023-05-18T06:38:16.645Z,101141.63
2023-05-18T06:40:44.502Z,101142.78
2023-05-18T06:43:11.916Z,101140.53
2023-05-18T06:45:47.200Z,101147.13
2023-05-18T06:48:31.023Z,101138.19
2023-05-18T06:50:58.543Z,101142.44
2023-05-18T06:53:26.395Z,101141.66
2023-05-18T06:55:53.884Z,101135.34
2023-05-18T06:58:21.490Z,101132.13
2023-05-18T07:00:49.367Z,101132.84
2023-05-18T07:03:17.405Z,101123.97
2023-05-18T07:05:44.898Z,101127.88
2023-05-18T07:08:12.390Z,101131.63
2023-05-18T07:10:39.872Z,101131.22
2023-05-18T07:13:07.321Z,101132.09
2023-05-18T07:15:35.023Z,101133.47
2023-05-18T07:18:03.613Z,101131.63
2023-05-18T07:20:31.807Z,101128.75
2023-05-18T07:22:59.153Z,101126.41
2023-05-18T07:25:26.661Z,101123.91
2023-05-18T07:27:55.059Z,101133.69
2023-05-18T07:30:23.028Z,101130.03
2023-05-18T07:32:53.293Z,101125.72
2023-05-18T07:35:26.968Z,101123.50
2023-05-18T07:37:54.697Z,101127.91
2023-05-18T07:40:22.351Z,101121.28
2023-05-18T07:42:49.810Z,101121.72
2023-05-18T07:45:17.299Z,101122.94
2023-05-18T07:47:44.706Z,101120.28
2023-05-18T07:50:12.214Z,101125.91
2023-05-18T07:52:39.600Z,101128.81
2023-05-18T07:55:10.036Z,101122.03
2023-05-18T07:57:37.520Z,101132.31
2023-05-18T08:00:06.671Z,101121.13
2023-05-18T08:02:40.770Z,101123.25
2023-05-18T08:05:10.695Z,101118.47
2023-05-18T08:07:38.359Z,101121.72
2023-05-18T08:10:07.086Z,101109.75
2023-05-18T08:12:34.414Z,101114.59
2023-05-18T08:15:02.111Z,101107.56
2023-05-18T08:17:31.758Z,101116.06
2023-05-18T08:19:59.716Z,101108.44
2023-05-18T08:22:27.085Z,101111.25
2023-05-18T08:24:54.809Z,101104.72
2023-05-18T08:27:22.551Z,101103.31
2023-05-18T08:29:49.965Z,101103.25
2023-05-18T08:32:17.471Z,101107.53
2023-05-18T08:34:46.139Z,101107.53
2023-05-18T08:37:13.549Z,101104.44
2023-05-18T08:39:41.037Z,101098.28
2023-05-18T08:42:19.868Z,101102.97
2023-05-18T08:45:07.895Z,101107.16
2023-05-18T08:47:37.391Z,101103.31
2023-05-18T08:50:06.231Z,101103.28
2023-05-18T08:52:36.680Z,101096.09
2023-05-18T08:55:10.080Z,101105.50
2023-05-18T08:57:39.649Z,101095.88
2023-05-18T09:00:10.039Z,101093.09
2023-05-18T09:02:38.711Z,101092.44
2023-05-18T09:05:10.099Z,101099.31
2023-05-18T09:07:40.899Z,101095.41
2023-05-18T09:10:11.242Z,101097.78
2023-05-18T09:12:41.658Z,101100.63
2023-05-18T09:15:13.672Z,101098.78
2023-05-18T09:17:41.097Z,101093.16
2023-05-18T09:20:09.346Z,101095.88
2023-05-18T09:22:37.089Z,101096.66
2023-05-18T09:25:08.287Z,101100.59
2023-05-18T09:27:35.747Z,101100.59
2023-05-18T09:30:04.024Z,101095.78
2023-05-18T09:32:36.725Z,101101.25
2023-05-18T09:35:08.510Z,101107.88
2023-05-18T09:37:36.525Z,101103.16
2023-05-18T09:40:08.661Z,101109.53
2023-05-18T09:42:40.167Z,101101.63
2023-05-18T09:45:23.755Z,101107.19
2023-05-18T09:47:51.746Z,101110.44
2023-05-18T09:50:20.514Z,101115.22
2023-05-18T09:52:50.154Z,101123.66
2023-05-18T09:55:20.831Z,101125.69
2023-05-18T09:57:51.277Z,101128.72
2023-05-18T10:00:21.164Z,101125.13
2023-05-18T10:02:52.636Z,101120.78
2023-05-18T10:05:28.257Z,101124.91
2023-05-18T10:07:56.942Z,101126.38
2023-05-18T10:10:27.412Z,101122.75
2023-05-18T10:12:57.519Z,101115.81
2023-05-18T10:15:25.670Z,101128.31
2023-05-18T10:17:56.832Z,101119.94
2023-05-18T10:20:26.019Z,101123.38
2023-05-18T10:22:56.107Z,101116.19
2023-05-18T10:25:26.572Z,101120.94
2023-05-18T10:28:07.803Z,101112.78
2023-05-18T10:30:36.086Z,101115.13
2023-05-18T10:33:11.272Z,101117.63
2023-05-18T10:35:45.880Z,101100.31
2023-05-18T10:38:13.791Z,101110.22
2023-05-18T10:40:46.040Z,101106.16
2023-05-18T10:43:18.884Z,101097.59
2023-05-18T10:45:55.021Z,101100.94
2023-05-18T10:48:23.983Z,101088.69
2023-05-18T10:50:55.093Z,101082.75
2023-05-18T10:53:27.165Z,101084.91
2023-05-18T10:55:54.535Z,101084.19
2023-05-18T10:58:27.915Z,101092.53
2023-05-18T11:00:59.189Z,101098.41
2023-05-18T11:03:27.612Z,101089.69
2023-05-18T11:06:15.051Z,101088.91
2023-05-18T11:08:47.786Z,101094.84
2023-05-18T11:11:18.692Z,101096.84
2023-05-18T11:13:51.329Z,101092.09
2023-05-18T11:16:19.241Z,101102.03
2023-05-18T11:18:52.129Z,101099.25
2023-05-18T11:21:35.905Z,101088.88
2023-05-18T11:24:18.244Z,101097.28
2023-05-18T11:26:51.121Z,101094.53
2023-05-18T11:29:34.104Z,101099.66
2023-05-18T11:32:01.608Z,101093.31
2023-05-18T11:34:47.778Z,101101.25
2023-05-18T11:37:16.666Z,101088.53
2023-05-18T11:40:08.445Z,101094.09
2023-05-18T11:42:37.704Z,101094.03
2023-05-18T11:45:13.182Z,101085.75
2023-05-18T11:47:41.520Z,101076.69
2023-05-18T11:50:13.081Z,101083.81
2023-05-18T11:52:46.944Z,101089.38
2023-05-18T11:55:16.376Z,101088.97
2023-05-18T11:57:48.635Z,101082.63
2023-05-18T12:00:17.151Z,101086.59
2023-05-18T12:02:46.454Z,101089.75
2023-05-18T12:05:14.695Z,101082.63
2023-05-18T12:07:42.570Z,101081.44
2023-05-18T12:10:17.640Z,101089.34
2023-05-18T12:12:49.131Z,101079.03
2023-05-18T12:15:17.374Z,101086.97
2023-05-18T12:17:46.465Z,101087.78
2023-05-18T12:20:14.719Z,101085.81
2023-05-18T12:22:43.759Z,101085.81
2023-05-18T12:25:11.871Z,101088.56
2023-05-18T12:27:40.832Z,101094.06
2023-05-18T12:30:13.760Z,101095.19
2023-05-18T12:32:46.485Z,101089.13
2023-05-18T12:35:13.953Z,101089.38
2023-05-18T12:37:46.125Z,101084.22
2023-05-18T12:40:15.926Z,101082.69
2023-05-18T12:42:53.888Z,101079.69
2023-05-18T12:45:26.990Z,101071.69
2023-05-18T12:47:55.626Z,101072.50
2023-05-18T12:50:26.837Z,101074.50
2023-05-18T12:52:55.887Z,101080.00
2023-05-18T12:55:30.609Z,101085.16
2023-05-18T12:57:59.298Z,101075.63
2023-05-18T13:00:26.606Z,101076.34
2023-05-18T13:02:53.949Z,101076.38
2023-05-18T13:05:24.687Z,101071.06
2023-05-18T13:07:52.683Z,101067.44
2023-05-18T13:10:20.492Z,101070.38
2023-05-18T13:12:49.844Z,101068.81
2023-05-18T13:15:22.800Z,101063.22
2023-05-18T13:18:03.040Z,101063.31
2023-05-18T13:20:41.571Z,101053.13
2023-05-18T13:23:11.880Z,101044.53
2023-05-18T13:25:39.802Z,101050.91
2023-05-18T13:28:09.320Z,101056.81
2023-05-18T13:30:37.032Z,101054.44
2023-05-18T13:33:12.331Z,101054.47
2023-05-18T13:35:42.181Z,101044.94
2023-05-18T13:38:14.080Z,101040.59
2023-05-18T13:40:42.514Z,101046.53
2023-05-18T13:43:11.937Z,101042.16
2023-05-18T13:45:41.209Z,101047.28
2023-05-18T13:48:10.640Z,101041.41
2023-05-18T13:50:39.613Z,101037.41
2023-05-18T13:53:07.302Z,101032.28
2023-05-18T13:55:35.626Z,101036.22
2023-05-18T13:58:02.989Z,101027.50
2023-05-18T14:00:33.400Z,101023.03
2023-05-18T14:03:01.536Z,101023.91
2023-05-18T14:05:29.004Z,101020.34
2023-05-18T14:07:56.849Z,101012.03
2023-05-18T14:10:27.184Z,101014.03
2023-05-18T14:12:54.432Z,101010.38
2023-05-18T14:15:21.726Z,101013.59
2023-05-18T14:17:49.155Z,101013.22
2023-05-18T14:20:16.394Z,101002.94
2023-05-18T14:22:43.733Z,101008.06
2023-05-18T14:25:10.988Z,101000.94
2023-05-18T14:27:38.356Z,100991.84
2023-05-18T14:30:06.606Z,100997.78
2023-05-18T14:32:33.906Z,100997.00
2023-05-18T14:35:03.827Z,100991.47
2023-05-18T14:37:32.881Z,100990.25
2023-05-18T14:40:00.484Z,100994.16
2023-05-18T14:42:27.771Z,100995.75
2023-05-18T14:44:55.113Z,100983.91
2023-05-18T14:47:22.573Z,100992.94
2023-05-18T14:49:49.864Z,100988.19
2023-05-18T14:52:17.130Z,100990.94
2023-05-18T14:54:45.273Z,100996.81
2023-05-18T14:57:12.869Z,100990.84
2023-05-18T14:59:40.127Z,100998.38
2023-05-18T15:02:08.255Z,100999.97
2023-05-18T15:04:36.117Z,100995.91
2023-05-18T15:07:03.532Z,100992.66
2023-05-18T15:09:30.820Z,100991.44
2023-05-18T15:11:58.113Z,100989.19
2023-05-18T15:14:25.749Z,100990.03
2023-05-18T15:16:55.751Z,100993.84
2023-05-18T15:19:23.590Z,100990.38
2023-05-18T15:21:51.199Z,100995.50
2023-05-18T15:24:18.534Z,100995.50
2023-05-18T15:26:46.175Z,100994.38
2023-05-18T15:29:13.721Z,100990.00
2023-05-18T15:31:41.504Z,100988.91
2023-05-18T15:34:08.906Z,100993.47
2023-05-18T15:36:37.130Z,100997.13
2023-05-18T15:39:05.148Z,100989.19
2023-05-18T15:41:34.193Z,100993.47
2023-05-18T15:44:02.002Z,100993.13
2023-05-18T15:46:35.707Z,100989.63
2023-05-18T15:49:04.019Z,100985.69
2023-05-18T15:51:31.647Z,100985.75
2023-05-18T15:53:59.112Z,100986.16
2023-05-18T15:56:29.776Z,100984.88
2023-05-18T15:58:57.280Z,100977.75
2023-05-18T16:01:24.546Z,100976.63
2023-05-18T16:03:51.937Z,100971.47
2023-05-18T16:06:19.372Z,100983.84
2023-05-18T16:08:46.725Z,100980.59
2023-05-18T16:11:15.905Z,100979.44
2023-05-18T16:13:48.248Z,100980.91
2023-05-18T16:16:15.915Z,100980.53
2023-05-18T16:18:45.706Z,100980.91
2023-05-18T16:21:13.613Z,100979.28
2023-05-18T16:23:41.733Z,100985.47
2023-05-18T16:26:10.395Z,100990.63
2023-05-18T16:28:38.020Z,100988.59
2023-05-18T16:31:08.051Z,100987.88
2023-05-18T16:33:35.486Z,100997.00
2023-05-18T16:36:03.287Z,100996.88
2023-05-18T16:38:31.666Z,100999.97
2023-05-18T16:40:58.950Z,100999.19
2023-05-18T16:43:26.437Z,101007.13
2023-05-18T16:45:53.719Z,101009.88
2023-05-18T16:48:21.243Z,101007.38
2023-05-18T16:50:48.614Z,101011.34
2023-05-18T16:53:16.981Z,101015.16
2023-05-18T16:55:44.268Z,101017.53
2023-05-18T16:58:11.735Z,101012.75
2023-05-18T17:00:39.100Z,101014.91
2023-05-18T17:03:06.569Z,101018.59
2023-05-18T17:05:34.642Z,101018.69
2023-05-18T17:08:01.986Z,101019.94
2023-05-18T17:10:30.836Z,101022.25
2023-05-18T17:12:59.882Z,101021.44
2023-05-18T17:15:27.191Z,101023.13
2023-05-18T17:17:54.689Z,101030.19
2023-05-18T17:20:22.187Z,101030.34
2023-05-18T17:22:49.567Z,101026.69
2023-05-18T17:25:17.062Z,101024.97
2023-05-18T17:27:44.532Z,101031.03
2023-05-18T17:30:12.054Z,101025.31
2023-05-18T17:32:39.763Z,101034.97
2023-05-18T17:35:12.480Z,101038.16
2023-05-18T17:37:41.513Z,101032.53
2023-05-18T17:40:09.899Z,101033.94
2023-05-18T17:42:37.247Z,101032.34
2023-05-18T17:45:04.770Z,101027.22
2023-05-18T17:47:32.187Z,101036.13
2023-05-18T17:49:59.458Z,101030.56
2023-05-18T17:52:26.809Z,101037.28
2023-05-18T17:54:54.187Z,101040.38
2023-05-18T17:57:23.002Z,101036.63
2023-05-18T17:59:50.366Z,101037.56
2023-05-18T18:02:17.856Z,101035.88
2023-05-18T18:04:45.288Z,101045.38
2023-05-18T18:07:12.898Z,101036.25
2023-05-18T18:09:42.791Z,101047.66
2023-05-18T18:12:10.572Z,101045.59
2023-05-18T18:14:37.997Z,101049.53
2023-05-18T18:17:05.867Z,101052.50
2023-05-18T18:19:33.317Z,101050.06
2023-05-18T18:22:00.888Z,101055.47
2023-05-18T18:24:28.272Z,101053.03
2023-05-18T18:26:56.200Z,101053.03
2023-05-18T18:29:23.660Z,101060.84
2023-05-18T18:31:51.122Z,101053.03
2023-05-18T18:34:18.614Z,101066.03
2023-05-18T18:36:47.789Z,101061.22
2023-05-18T18:39:15.597Z,101063.78
2023-05-18T18:41:43.119Z,101064.22
2023-05-18T18:44:11.250Z,101074.00
2023-05-18T18:46:39.390Z,101060.03
2023-05-18T18:49:06.925Z,101073.31
2023-05-18T18:51:34.409Z,101078.16
2023-05-18T18:54:01.878Z,101073.50
2023-05-18T18:56:29.435Z,101089.44
2023-05-18T18:58:57.087Z,101092.19
2023-05-18T19:01:24.636Z,101098.06
2023-05-18T19:03:52.851Z,101090.06
2023-05-18T19:06:20.358Z,101096.69
2023-05-18T19:08:47.760Z,101099.41
2023-05-18T19:11:15.341Z,101102.88
2023-05-18T19:13:42.753Z,101102.88
2023-05-18T19:16:10.468Z,101109.13
2023-05-18T19:18:38.061Z,101108.69
2023-05-18T19:21:08.590Z,101110.25
2023-05-18T19:23:36.213Z,101115.38
2023-05-18T19:26:03.765Z,101124.44
2023-05-18T19:28:31.554Z,101126.53
2023-05-18T19:30:59.065Z,101127.88
2023-05-18T19:33:26.507Z,101126.91
2023-05-18T19:35:54.706Z,101131.72
2023-05-18T19:38:22.108Z,101133.66
2023-05-18T19:40:49.581Z,101130.84
2023-05-18T19:43:17.186Z,101134.75
2023-05-18T19:45:44.840Z,101132.06
2023-05-18T19:48:12.487Z,101136.06
2023-05-18T19:50:39.999Z,101145.03
2023-05-18T19:53:07.390Z,101149.88
2023-05-18T19:55:34.862Z,101141.44
2023-05-18T19:58:02.767Z,101148.28
2023-05-18T20:00:30.522Z,101149.94
2023-05-18T20:02:58.594Z,101150.16
2023-05-18T20:05:26.224Z,101146.78
2023-05-18T20:07:53.856Z,101153.00
2023-05-18T20:10:21.256Z,101157.59
2023-05-18T20:12:48.708Z,101163.44
2023-05-18T20:15:16.141Z,101163.91
2023-05-18T20:17:43.742Z,101158.97
2023-05-18T20:20:12.956Z,101159.97
2023-05-18T20:22:40.779Z,101161.81
2023-05-18T20:25:08.576Z,101160.34
2023-05-18T20:27:36.096Z,101155.50
2023-05-18T20:30:04.252Z,101159.75
2023-05-18T20:32:33.212Z,101157.19
2023-05-18T20:35:00.774Z,101158.81
2023-05-18T20:37:28.179Z,101176.91
2023-05-18T20:39:57.457Z,101167.88
2023-05-18T20:42:31.855Z,101168.00
2023-05-18T20:44:59.275Z,101173.59
2023-05-18T20:47:26.684Z,101166.03
2023-05-18T20:49:54.191Z,101171.75
2023-05-18T20:52:21.624Z,101169.81
2023-05-18T20:54:49.022Z,101168.16
2023-05-18T20:57:16.578Z,101166.19
2023-05-18T20:59:46.400Z,101164.16
2023-05-18T21:02:13.800Z,101166.53
2023-05-18T21:04:41.170Z,101171.69
2023-05-18T21:07:09.984Z,101174.44
2023-05-18T21:09:37.467Z,101170.91
2023-05-18T21:12:05.859Z,101170.44
2023-05-18T21:14:33.245Z,101166.91
2023-05-18T21:17:00.672Z,101175.34
2023-05-18T21:19:28.112Z,101181.78
2023-05-18T21:21:55.683Z,101179.41
2023-05-18T21:24:23.087Z,101180.84
2023-05-18T21:26:50.825Z,101189.38
2023-05-18T21:29:18.212Z,101185.31
2023-05-18T21:31:45.728Z,101196.06
2023-05-18T21:34:13.782Z,101188.09
2023-05-18T21:36:41.634Z,101184.72
2023-05-18T21:39:09.569Z,101181.91
2023-05-18T21:41:40.251Z,101186.06
2023-05-18T21:44:08.429Z,101178.88
2023-05-18T21:46:36.621Z,101169.75
2023-05-18T21:49:05.924Z,101184.38
2023-05-18T21:51:33.306Z,101181.66
2023-05-18T21:54:04.360Z,101186.56
2023-05-18T21:56:34.580Z,101179.34
2023-05-18T21:59:02.046Z,101174.25
2023-05-18T22:01:29.454Z,101176.47
2023-05-18T22:03:57.007Z,101175.94
2023-05-18T22:06:24.472Z,101175.59
2023-05-18T22:08:52.245Z,101178.97
2023-05-18T22:11:20.212Z,101173.84
2023-05-18T22:13:47.578Z,101175.44
2023-05-18T22:16:15.141Z,101173.94
2023-05-18T22:18:42.606Z,101179.34
2023-05-18T22:21:09.987Z,101183.66
2023-05-18T22:23:39.168Z,101179.50
2023-05-18T22:26:07.136Z,101182.00
2023-05-18T22:28:34.595Z,101182.66
2023-05-18T22:31:01.972Z,101177.22
2023-05-18T22:33:29.427Z,101185.03
2023-05-18T22:35:56.914Z,101191.06
2023-05-18T22:38:24.477Z,101185.47
2023-05-18T22:40:54.111Z,101186.91
2023-05-18T22:43:24.627Z,101193.03
2023-05-18T22:45:52.032Z,101183.44
2023-05-18T22:48:19.488Z,101193.44
2023-05-18T22:50:46.873Z,101192.06
2023-05-18T22:53:14.371Z,101189.75
2023-05-18T22:55:42.059Z,101186.09
2023-05-18T22:58:09.460Z,101191.34
2023-05-18T23:00:36.872Z,101188.50
2023-05-18T23:03:04.324Z,101185.69
2023-05-18T23:05:32.741Z,101188.16
2023-05-18T23:08:02.805Z,101183.63
2023-05-18T23:10:30.798Z,101188.22
2023-05-18T23:12:59.824Z,101182.25
2023-05-18T23:15:27.817Z,101173.84
2023-05-18T23:18:00.051Z,101176.84
2023-05-18T23:20:27.505Z,101177.91
2023-05-18T23:22:54.924Z,101178.63
2023-05-18T23:25:22.734Z,101177.84
2023-05-18T23:27:50.236Z,101177.16
2023-05-18T23:30:17.651Z,101172.91
2023-05-18T23:32:46.890Z,101175.00
2023-05-18T23:35:15.262Z,101174.41
2023-05-18T23:37:42.831Z,101164.72
2023-05-18T23:40:12.431Z,101173.56
2023-05-18T23:42:40.204Z,101175.81
2023-05-18T23:45:08.389Z,101167.56
2023-05-18T23:47:36.211Z,101169.41
2023-05-18T23:50:04.127Z,101170.22
2023-05-18T23:52:33.244Z,101174.47
2023-05-18T23:55:02.829Z,101175.56
2023-05-18T23:57:31.569Z,101172.88
2023-05-18T23:59:59.284Z,101169.50
